Seven Tenths — WDG5091 — position and weather

sailwx.info

Track history (hours):
 
Tides and Currents Weather Stations Pressure Air Temp Water Temp Dewpoint Dewpoint Depression Visibility Wind Speed Wind Dir Waves Ship Positions

Seven Tenths

Owner: Dennig, Henry J, Baltimore, MD. More information available from US FCC via Universal Licensing System and Coast Guard Vessel Documentation Center.

Last reported at 2017-Nov-18 17:32 UTC. Time now 2017-Nov-21 10:23 UTC.
Position N 30°35' W 081°29'.

Length 15 m.

Type: Pleasure craft. MMSI: 367543210.

Date/timePositionNaut miles runAvg speedWind from/ knotsBaromVisibWave heightAir tempDewpointWater temp
2017-Nov-18 17:32N 30°35' W 081°29'1 6.6
2017-Nov-18 17:25N 30°36' W 081°29'2 5.9
2017-Nov-18 17:00N 30°39' W 081°29'2 4.5
2017-Nov-18 16:30N 30°41' W 081°28'3 5.7
2017-Nov-18 16:00N 30°43' W 081°29'7 8.7
2017-Nov-18 15:13N 30°50' W 081°29'1 6.6
2017-Nov-18 15:00N 30°52' W 081°29'3 5.7
2017-Nov-18 14:29N 30°54' W 081°30'3 6.7
2017-Nov-18 13:59N 30°57' W 081°27'60 2.3
2017-Nov-17 12:24N 31°54' W 081°06'2 0.1
2017-Nov-16 19:36N 31°56' W 081°07'1 4.2
2017-Nov-16 19:20N 31°55' W 081°05'1 3.0
2017-Nov-16 19:00N 31°56' W 081°05'3 5.4
2017-Nov-16 18:30N 31°59' W 081°03'2 4.6
2017-Nov-16 18:00N 32°00' W 081°01'2 4.8
2017-Nov-16 17:30N 32°02' W 081°03'3 6.2
2017-Nov-16 17:00N 32°04' W 081°01'3 5.3
2017-Nov-16 16:30N 32°04' W 080°58'3 6.0
2017-Nov-16 16:00N 32°06' W 080°54'3 5.7
2017-Nov-16 15:29N 32°08' W 080°52'  
Track history (hours):
 
Tides and Currents Weather Stations Pressure Air Temp Water Temp Dewpoint Dewpoint Depression Visibility Wind Speed Wind Dir Waves Ship Positions

Seven Tenths

Owner: Dennig, Henry J, Baltimore, MD. More information available from US FCC via Universal Licensing System and Coast Guard Vessel Documentation Center.

Last reported at 2017-Nov-18 17:32 UTC. Time now 2017-Nov-21 10:23 UTC.
Position N 30°35' W 081°29'.

Length 15 m.

Type: Pleasure craft. MMSI: 367543210.

Date/timePositionNaut miles runAvg speedWind from/ knotsBaromVisibWave heightAir tempDewpointWater temp
2017-Nov-18 17:32N 30°35' W 081°29'1 6.6
2017-Nov-18 17:25N 30°36' W 081°29'2 5.9
2017-Nov-18 17:00N 30°39' W 081°29'2 4.5
2017-Nov-18 16:30N 30°41' W 081°28'3 5.7
2017-Nov-18 16:00N 30°43' W 081°29'7 8.7
2017-Nov-18 15:13N 30°50' W 081°29'1 6.6
2017-Nov-18 15:00N 30°52' W 081°29'3 5.7
2017-Nov-18 14:29N 30°54' W 081°30'3 6.7
2017-Nov-18 13:59N 30°57' W 081°27'60 2.3
2017-Nov-17 12:24N 31°54' W 081°06'2 0.1
2017-Nov-16 19:36N 31°56' W 081°07'1 4.2
2017-Nov-16 19:20N 31°55' W 081°05'1 3.0
2017-Nov-16 19:00N 31°56' W 081°05'3 5.4
2017-Nov-16 18:30N 31°59' W 081°03'2 4.6
2017-Nov-16 18:00N 32°00' W 081°01'2 4.8
2017-Nov-16 17:30N 32°02' W 081°03'3 6.2
2017-Nov-16 17:00N 32°04' W 081°01'3 5.3
2017-Nov-16 16:30N 32°04' W 080°58'3 6.0
2017-Nov-16 16:00N 32°06' W 080°54'3 5.7
2017-Nov-16 15:29N 32°08' W 080°52'  

Dump ship's entire track history